Time;durP1;ratioP1;P1;durP2;ratioP2;P2;SDS_P1;SDS_P2;PMS_P1;PMS_P2;Temp;Humidity;BMP_temperature;BMP_pressure;BME280_temperature;BME280_humidity;BME280_pressure;Samples;Min_cycle;Max_cycle;Signal;HPM_P1;HPM_P2
2022/10/13 00:00:15;;;;;;;1133.30;77.88;;;;;10.10;96859.00;;;;8361009;28;20275;-77
2022/10/13 00:04:18;;;;;;;781.47;61.10;;;;;10.30;96853.00;;;;8360971;28;20658;-76
2022/10/13 00:08:24;;;;;;;1118.45;73.63;;;;;10.30;96853.00;;;;8360910;28;20224;-76
2022/10/13 00:12:55;;;;;;;938.95;71.57;;;;;10.40;96844.00;;;;8361586;28;20247;-76
2022/10/13 00:16:59;;;;;;;1080.30;76.82;;;;;10.50;96860.00;;;;8331085;28;20213;-76
2022/10/13 00:21:08;;;;;;;962.95;74.60;;;;;10.50;96855.00;;;;8361208;28;20270;-76
2022/10/13 00:25:11;;;;;;;209.20;42.00;;;;;10.60;96859.00;;;;8360324;28;20225;-76
2022/10/13 00:29:47;;;;;;;224.00;45.05;;;;;10.70;96862.00;;;;8359450;28;20220;-77
2022/10/13 00:33:52;;;;;;;142.18;41.22;;;;;10.80;96857.00;;;;8360240;28;20233;-76
2022/10/13 00:37:55;;;;;;;155.70;36.67;;;;;10.80;96866.00;;;;8360873;28;20220;-75
2022/10/13 00:41:59;;;;;;;172.57;37.78;;;;;10.80;96869.00;;;;8357680;28;20232;-76
2022/10/13 00:46:02;;;;;;;153.20;34.22;;;;;10.80;96861.00;;;;8355168;28;20309;-75
2022/10/13 00:50:12;;;;;;;133.32;33.53;;;;;10.80;96863.00;;;;8357049;28;20560;-74
2022/10/13 00:54:19;;;;;;;113.57;34.03;;;;;10.80;96863.00;;;;8337641;28;20233;-75
2022/10/13 00:58:54;;;;;;;130.35;33.60;;;;;10.80;96865.00;;;;8357518;28;20224;-74
2022/10/13 01:02:57;;;;;;;99.17;29.63;;;;;10.90;96863.00;;;;8359681;28;20216;-75
2022/10/13 01:07:03;;;;;;;114.55;32.92;;;;;10.90;96864.00;;;;8360017;28;20229;-75
2022/10/13 01:11:25;;;;;;;108.07;31.70;;;;;10.90;96867.00;;;;8360615;28;20233;-75
2022/10/13 01:15:33;;;;;;;102.30;31.05;;;;;10.90;96865.00;;;;8359695;28;20223;-74
2022/10/13 01:20:02;;;;;;;106.63;33.20;;;;;10.90;96864.00;;;;8361033;28;20666;-74
2022/10/13 01:24:44;;;;;;;106.43;32.25;;;;;10.80;96859.00;;;;8359655;28;20230;-75
2022/10/13 01:29:08;;;;;;;97.03;29.02;;;;;10.90;96862.00;;;;8359692;28;20209;-75
2022/10/13 01:33:26;;;;;;;125.40;30.63;;;;;10.90;96871.00;;;;8359596;28;20576;-75
2022/10/13 01:37:34;;;;;;;93.43;28.00;;;;;11.00;96858.00;;;;8359756;28;20224;-75
2022/10/13 01:41:41;;;;;;;109.38;30.70;;;;;11.10;96858.00;;;;8364060;28;20221;-75
2022/10/13 01:45:50;;;;;;;121.18;29.75;;;;;11.10;96854.00;;;;8365680;28;20231;-75
2022/10/13 01:49:56;;;;;;;221.23;36.50;;;;;11.20;96851.00;;;;8365592;28;20217;-75
2022/10/13 01:54:30;;;;;;;171.15;33.47;;;;;11.20;96844.00;;;;8365729;28;20235;-74
2022/10/13 01:58:35;;;;;;;141.82;30.80;;;;;11.30;96843.00;;;;8365094;28;20220;-76
2022/10/13 02:02:46;;;;;;;292.38;38.50;;;;;11.30;96847.00;;;;8364973;28;20229;-75
2022/10/13 02:07:18;;;;;;;443.67;44.10;;;;;11.30;96845.00;;;;8362461;28;20546;-76
2022/10/13 02:11:23;;;;;;;595.03;52.78;;;;;11.30;96843.00;;;;8330828;28;20511;-75
2022/10/13 02:15:32;;;;;;;594.17;53.38;;;;;11.40;96852.00;;;;8357649;28;20293;-74
2022/10/13 02:20:05;;;;;;;883.92;67.63;;;;;11.40;96850.00;;;;8359143;28;20291;-75
2022/10/13 02:24:40;;;;;;;959.30;72.25;;;;;11.40;96847.00;;;;8358728;28;20662;-75
2022/10/13 02:28:44;;;;;;;447.88;45.95;;;;;11.50;96840.00;;;;8361395;28;20597;-76
2022/10/13 02:32:47;;;;;;;750.22;61.75;;;;;11.60;96841.00;;;;8363367;28;20280;-75
2022/10/13 02:37:24;;;;;;;1044.20;74.68;;;;;11.60;96835.00;;;;8363511;28;20228;-75
2022/10/13 02:41:29;;;;;;;663.20;55.65;;;;;11.70;96820.00;;;;8364028;28;20248;-75
2022/10/13 02:45:32;;;;;;;905.75;67.97;;;;;11.70;96831.00;;;;8363054;28;20217;-75
2022/10/13 02:49:36;;;;;;;817.05;61.28;;;;;11.80;96828.00;;;;8363129;28;20299;-75
2022/10/13 02:53:39;;;;;;;1330.53;83.05;;;;;11.90;96829.00;;;;8362107;28;20696;-76
2022/10/13 02:57:44;;;;;;;1184.13;80.35;;;;;11.90;96824.00;;;;8345829;28;20222;-75
2022/10/13 03:01:47;;;;;;;328.42;44.35;;;;;12.00;96817.00;;;;8326554;28;20225;-75
2022/10/13 03:06:24;;;;;;;316.05;44.90;;;;;12.10;96808.00;;;;8363428;28;20280;-75
2022/10/13 03:10:28;;;;;;;386.30;44.53;;;;;12.10;96800.00;;;;8361773;28;20216;-76
2022/10/13 03:14:32;;;;;;;816.80;58.22;;;;;12.10;96803.00;;;;8363449;28;20222;-75
2022/10/13 03:19:06;;;;;;;807.65;62.20;;;;;12.00;96800.00;;;;8357435;28;20224;-75
2022/10/13 03:23:10;;;;;;;525.63;44.83;;;;;12.00;96810.00;;;;8360976;28;20265;-75
2022/10/13 03:27:13;;;;;;;394.33;42.88;;;;;12.00;96809.00;;;;8361956;28;20218;-76
2022/10/13 03:31:18;;;;;;;272.88;40.65;;;;;11.90;96820.00;;;;8361368;28;20227;-76
2022/10/13 03:35:49;;;;;;;323.45;41.55;;;;;11.90;96810.00;;;;8361477;28;20218;-77
2022/10/13 03:40:28;;;;;;;331.77;42.67;;;;;11.90;96811.00;;;;8361372;28;20279;-76
2022/10/13 03:44:32;;;;;;;360.10;42.17;;;;;11.90;96824.00;;;;8360456;28;20679;-74
2022/10/13 03:48:36;;;;;;;259.77;39.67;;;;;12.00;96832.00;;;;8358225;28;20226;-74
2022/10/13 03:53:13;;;;;;;247.63;38.65;;;;;12.00;96827.00;;;;8361460;28;20566;-75
2022/10/13 03:57:50;;;;;;;338.30;40.95;;;;;12.10;96835.00;;;;8361383;28;20213;-76
2022/10/13 04:01:53;;;;;;;187.30;34.20;;;;;12.10;96833.00;;;;8360422;28;20230;-75
2022/10/13 04:06:29;;;;;;;209.75;37.20;;;;;12.20;96827.00;;;;8359164;28;20590;-73
2022/10/13 04:10:32;;;;;;;171.90;33.58;;;;;12.20;96825.00;;;;8360576;28;20210;-76
2022/10/13 04:14:36;;;;;;;235.60;37.67;;;;;12.30;96828.00;;;;8360967;28;20235;-79
2022/10/13 04:19:13;;;;;;;189.70;36.50;;;;;12.30;96830.00;;;;8360300;28;20330;-83
2022/10/13 04:23:49;;;;;;;205.55;37.13;;;;;12.30;96827.00;;;;8360836;28;20218;-83
2022/10/13 04:28:23;;;;;;;173.00;33.92;;;;;12.30;96829.00;;;;8359636;28;20218;-81
2022/10/13 04:32:58;;;;;;;171.35;35.55;;;;;12.40;96841.00;;;;8361002;28;20219;-82
2022/10/13 04:37:01;;;;;;;163.23;32.03;;;;;12.50;96835.00;;;;8359751;28;20578;-82
2022/10/13 04:41:39;;;;;;;163.15;34.95;;;;;12.50;96826.00;;;;8360287;28;20227;-82
2022/10/13 04:45:42;;;;;;;175.82;35.63;;;;;12.60;96827.00;;;;8361106;28;20230;-83
2022/10/13 04:49:45;;;;;;;164.98;34.00;;;;;12.60;96826.00;;;;8360121;28;20274;-83
2022/10/13 04:54:22;;;;;;;165.20;32.97;;;;;12.60;96817.00;;;;8360783;28;20216;-83
2022/10/13 04:58:26;;;;;;;156.18;34.03;;;;;12.60;96818.00;;;;8360146;28;20245;-82
2022/10/13 05:02:29;;;;;;;153.75;33.88;;;;;12.60;96813.00;;;;8360476;28;20226;-83
2022/10/13 05:06:34;;;;;;;166.55;34.90;;;;;12.70;96810.00;;;;8360137;28;20228;-84
2022/10/13 05:11:09;;;;;;;196.75;37.50;;;;;12.60;96801.00;;;;8360577;28;20221;-83
2022/10/13 05:15:13;;;;;;;232.75;54.90;;;;;12.60;96802.00;;;;8362476;28;20239;-84
2022/10/13 05:19:16;;;;;;;228.35;37.80;;;;;12.50;96806.00;;;;8368013;28;20223;-84
2022/10/13 05:23:19;;;;;;;548.50;58.38;;;;;12.50;96804.00;;;;8366693;28;20223;-84
2022/10/13 05:27:23;;;;;;;227.88;40.55;;;;;12.60;96815.00;;;;8366830;28;20227;-84
2022/10/13 05:31:30;;;;;;;204.00;41.10;;;;;12.60;96806.00;;;;8366297;28;20543;-84
2022/10/13 05:35:34;;;;;;;211.70;47.15;;;;;12.60;96814.00;;;;8366599;28;20222;-84
2022/10/13 05:40:11;;;;;;;223.75;36.50;;;;;12.70;96810.00;;;;8366483;28;20219;-84
2022/10/13 05:44:15;;;;;;;473.60;46.08;;;;;12.60;96807.00;;;;8365590;28;20232;-85
2022/10/13 05:48:19;;;;;;;317.23;44.63;;;;;12.60;96806.00;;;;8366226;28;20685;-85
2022/10/13 05:52:24;;;;;;;564.17;51.35;;;;;12.70;96806.00;;;;8365515;28;20666;-85
2022/10/13 05:56:32;;;;;;;541.47;51.35;;;;;12.80;96810.00;;;;8365237;28;20219;-85
2022/10/13 06:00:35;;;;;;;491.92;53.80;;;;;12.90;96809.00;;;;8366347;28;20558;-85
2022/10/13 06:05:16;;;;;;;442.08;52.17;;;;;13.00;96810.00;;;;8366468;28;20222;-86
2022/10/13 06:09:19;;;;;;;444.92;50.13;;;;;13.10;96805.00;;;;8365128;28;20223;-86
2022/10/13 06:13:23;;;;;;;338.20;48.40;;;;;13.20;96806.00;;;;8365627;28;20277;-86
2022/10/13 06:17:26;;;;;;;497.67;56.17;;;;;13.30;96802.00;;;;8365042;28;20221;-82
2022/10/13 06:21:30;;;;;;;276.95;42.75;;;;;13.40;96800.00;;;;8365205;28;20253;-86
2022/10/13 06:30:55;;;;;;;290.33;48.38;;;;;13.50;96799.00;;;;8364587;28;20310;-87
2022/10/13 06:34:58;;;;;;;265.58;46.97;;;;;13.60;96802.00;;;;8365049;28;20232;-86
2022/10/13 06:39:03;;;;;;;263.42;47.35;;;;;13.70;96798.00;;;;8364488;28;20230;-86
2022/10/13 06:43:07;;;;;;;255.70;48.05;;;;;13.80;96797.00;;;;8364414;28;20258;-87
2022/10/13 06:47:11;;;;;;;221.75;44.55;;;;;13.90;96798.00;;;;8363533;28;20229;-86
2022/10/13 06:51:14;;;;;;;236.05;47.40;;;;;14.00;96799.00;;;;8364734;28;20274;-86
2022/10/13 06:55:18;;;;;;;256.13;46.90;;;;;14.20;96804.00;;;;8364133;28;20228;-86
2022/10/13 06:59:52;;;;;;;232.63;45.83;;;;;14.40;96814.00;;;;8364162;28;20231;-86
2022/10/13 07:03:56;;;;;;;205.93;44.55;;;;;14.50;96817.00;;;;8364566;28;20224;-85
2022/10/13 07:07:59;;;;;;;210.43;44.60;;;;;14.60;96817.00;;;;8363267;28;20278;-84
2022/10/13 07:12:38;;;;;;;205.68;44.03;;;;;14.70;96816.00;;;;8363613;28;20224;-84
2022/10/13 07:16:41;;;;;;;190.30;43.38;;;;;14.70;96815.00;;;;8363459;28;20543;-84
2022/10/13 07:20:44;;;;;;;217.35;43.65;;;;;14.70;96806.00;;;;8364107;28;20216;-84
2022/10/13 07:24:47;;;;;;;188.85;42.42;;;;;14.70;96796.00;;;;8363502;28;20650;-85
2022/10/13 07:29:26;;;;;;;177.13;42.95;;;;;14.80;96791.00;;;;8363303;28;20685;-85
2022/10/13 07:33:29;;;;;;;152.68;37.53;;;;;14.80;96787.00;;;;8362412;28;20217;-82
2022/10/13 07:37:32;;;;;;;163.20;39.90;;;;;14.80;96788.00;;;;8362076;28;20221;-85
2022/10/13 07:42:09;;;;;;;140.65;38.60;;;;;14.70;96787.00;;;;8361738;28;20232;-84
2022/10/13 07:46:14;;;;;;;146.70;38.30;;;;;14.70;96789.00;;;;8362593;28;20873;-84
2022/10/13 07:50:17;;;;;;;132.32;39.00;;;;;14.70;96789.00;;;;8362630;28;20220;-84
2022/10/13 07:54:20;;;;;;;145.32;38.15;;;;;14.80;96787.00;;;;8362110;28;20228;-84
2022/10/13 07:58:29;;;;;;;123.38;34.92;;;;;14.80;96784.00;;;;8361970;28;20240;-84
2022/10/13 08:02:33;;;;;;;116.53;35.42;;;;;15.00;96781.00;;;;8361639;28;20228;-84
2022/10/13 08:06:37;;;;;;;110.75;34.50;;;;;15.10;96780.00;;;;8362280;28;20289;-83
2022/10/13 08:10:40;;;;;;;107.75;35.33;;;;;15.30;96781.00;;;;8361631;28;20558;-84
2022/10/13 08:14:43;;;;;;;99.88;33.17;;;;;15.40;96779.00;;;;8361589;28;20223;-84
2022/10/13 08:18:48;;;;;;;91.47;33.28;;;;;15.50;96781.00;;;;8361021;28;20294;-83
2022/10/13 08:22:51;;;;;;;86.88;33.75;;;;;15.70;96788.00;;;;8362182;28;20233;-84
2022/10/13 08:26:54;;;;;;;77.07;30.23;;;;;15.80;96789.00;;;;8361126;28;20221;-85
2022/10/13 08:31:31;;;;;;;68.35;30.45;;;;;16.00;96793.00;;;;8361089;28;20228;-84
2022/10/13 08:35:36;;;;;;;70.25;29.85;;;;;16.20;96799.00;;;;8360100;28;20220;-83
2022/10/13 08:39:39;;;;;;;61.78;28.77;;;;;16.20;96792.00;;;;8360977;28;20662;-84
2022/10/13 08:43:47;;;;;;;57.88;26.38;;;;;16.30;96784.00;;;;8360604;28;20225;-83
2022/10/13 08:48:14;;;;;;;66.57;28.45;;;;;16.30;96794.00;;;;8360373;28;20570;-84
2022/10/13 08:52:21;;;;;;;58.90;27.33;;;;;16.40;96788.00;;;;8360922;28;20654;-83
2022/10/13 08:56:52;;;;;;;59.22;27.10;;;;;16.50;96788.00;;;;8360053;28;20226;-83
2022/10/13 09:01:05;;;;;;;53.78;25.45;;;;;16.60;96777.00;;;;8360000;28;20212;-84
2022/10/13 09:05:16;;;;;;;58.45;27.00;;;;;16.70;96783.00;;;;8360204;28;20225;-83
2022/10/13 09:09:45;;;;;;;51.78;25.95;;;;;16.90;96783.00;;;;8360721;28;20232;-84
2022/10/13 09:13:48;;;;;;;53.05;26.10;;;;;17.10;96785.00;;;;8359557;28;20272;-83
2022/10/13 09:18:08;;;;;;;47.15;24.45;;;;;17.20;96777.00;;;;8360813;28;20220;-83
2022/10/13 09:22:28;;;;;;;47.17;23.77;;;;;17.50;96776.00;;;;8359033;28;20278;-84
2022/10/13 09:26:38;;;;;;;43.70;21.98;;;;;17.70;96773.00;;;;8359767;28;20674;-84
2022/10/13 09:30:45;;;;;;;39.65;23.50;;;;;17.70;96777.00;;;;8359394;28;20216;-84
2022/10/13 09:34:49;;;;;;;45.83;22.42;;;;;17.80;96773.00;;;;8360315;28;20224;-84
2022/10/13 09:39:23;;;;;;;36.30;19.55;;;;;17.70;96778.00;;;;8359716;28;20228;-84
2022/10/13 09:43:32;;;;;;;37.35;20.38;;;;;17.70;96783.00;;;;8359659;28;20263;-84
2022/10/13 09:47:35;;;;;;;34.00;19.50;;;;;17.70;96776.00;;;;8358621;28;20278;-82
2022/10/13 09:51:40;;;;;;;40.42;18.33;;;;;17.60;96782.00;;;;8359723;28;20224;-83
2022/10/13 09:56:14;;;;;;;40.63;19.80;;;;;17.50;96779.00;;;;8360266;28;20554;-83
2022/10/13 10:00:22;;;;;;;36.65;19.05;;;;;17.50;96778.00;;;;8360553;28;20220;-84
2022/10/13 10:04:31;;;;;;;32.88;17.55;;;;;17.30;96766.00;;;;8364847;28;20717;-84
2022/10/13 10:08:44;;;;;;;33.13;17.10;;;;;17.10;96766.00;;;;8365683;28;20681;-84
2022/10/13 10:13:04;;;;;;;33.42;15.68;;;;;17.10;96780.00;;;;8364883;28;20212;-84
2022/10/13 10:17:18;;;;;;;31.10;15.32;;;;;17.30;96768.00;;;;8364838;28;20609;-83
2022/10/13 10:21:32;;;;;;;28.48;15.00;;;;;17.40;96767.00;;;;8364754;28;20221;-83
2022/10/13 10:25:59;;;;;;;26.15;14.18;;;;;17.40;96755.00;;;;8364689;28;20240;-83
2022/10/13 10:30:05;;;;;;;27.40;14.25;;;;;17.60;96752.00;;;;8364169;28;20224;-84
2022/10/13 10:34:27;;;;;;;28.38;13.55;;;;;17.90;96752.00;;;;8364449;28;20250;-84
2022/10/13 10:38:39;;;;;;;24.73;13.35;;;;;17.90;96745.00;;;;8364413;28;20227;-81
2022/10/13 10:43:21;;;;;;;25.40;13.55;;;;;17.60;96745.00;;;;8364185;28;20227;-84
2022/10/13 10:48:00;;;;;;;21.33;12.82;;;;;17.70;96746.00;;;;8330055;28;20272;-84
2022/10/13 10:52:07;;;;;;;20.42;12.02;;;;;17.70;96742.00;;;;8331103;28;20221;-84
2022/10/13 10:56:38;;;;;;;24.85;14.27;;;;;17.60;96742.00;;;;8329763;28;20225;-82
2022/10/13 11:01:19;;;;;;;27.05;13.82;;;;;17.50;96733.00;;;;8329901;28;20214;-81
2022/10/13 11:05:23;;;;;;;22.60;11.82;;;;;17.70;96731.00;;;;8330223;28;20241;-81
2022/10/13 11:10:03;;;;;;;23.63;12.38;;;;;17.90;96723.00;;;;8330624;28;20229;-81
2022/10/13 11:14:36;;;;;;;25.35;12.30;;;;;18.00;96705.00;;;;8328816;28;20251;-81
2022/10/13 11:19:25;;;;;;;23.90;12.40;;;;;18.10;96716.00;;;;8284803;28;20555;-81
2022/10/13 11:23:33;;;;;;;26.45;13.13;;;;;18.10;96709.00;;;;8329768;28;20528;-80
2022/10/13 11:27:42;;;;;;;24.42;13.23;;;;;18.00;96703.00;;;;8330269;28;20255;-81
2022/10/13 11:31:52;;;;;;;23.25;11.63;;;;;17.80;96700.00;;;;8330384;28;20217;-81
2022/10/13 11:36:30;;;;;;;24.92;12.57;;;;;17.60;96695.00;;;;8329543;28;20221;-80
2022/10/13 11:40:39;;;;;;;22.60;12.13;;;;;17.70;96689.00;;;;8329009;28;20221;-81
2022/10/13 11:44:51;;;;;;;30.05;13.68;;;;;17.70;96684.00;;;;8340990;28;20225;-81
2022/10/13 11:49:31;;;;;;;24.60;12.73;;;;;17.80;96684.00;;;;8362447;28;20224;-81
2022/10/13 11:53:43;;;;;;;23.88;11.77;;;;;18.00;96681.00;;;;8361712;28;20276;-82
2022/10/13 11:57:47;;;;;;;23.15;11.75;;;;;18.20;96677.00;;;;8361425;28;20216;-81
2022/10/13 12:01:54;;;;;;;21.33;12.80;;;;;18.40;96670.00;;;;8361761;28;20228;-81
2022/10/13 12:06:02;;;;;;;27.08;12.30;;;;;18.40;96664.00;;;;8361540;28;20219;-82
2022/10/13 12:10:08;;;;;;;24.92;12.00;;;;;18.60;96654.00;;;;8360929;28;20235;-83
2022/10/13 12:14:43;;;;;;;24.27;12.57;;;;;18.80;96656.00;;;;8361245;28;20239;-81
2022/10/13 12:18:49;;;;;;;19.95;12.27;;;;;18.90;96648.00;;;;8361196;28;20212;-81
2022/10/13 12:22:54;;;;;;;22.95;12.50;;;;;19.00;96646.00;;;;8360957;28;20236;-81
2022/10/13 12:26:58;;;;;;;28.20;13.43;;;;;19.10;96637.00;;;;8360773;28;20221;-82
2022/10/13 12:31:39;;;;;;;24.65;12.82;;;;;19.00;96630.00;;;;8360503;28;20244;-81
2022/10/13 12:35:42;;;;;;;23.90;13.90;;;;;18.90;96628.00;;;;8360493;28;20254;-82
2022/10/13 12:39:48;;;;;;;22.45;12.35;;;;;18.90;96632.00;;;;8360449;28;20216;-81
2022/10/13 12:43:52;;;;;;;22.30;11.90;;;;;18.90;96645.00;;;;8360287;28;20231;-81
2022/10/13 12:48:29;;;;;;;23.05;11.68;;;;;18.80;96631.00;;;;8360377;28;20709;-81
2022/10/13 12:52:34;;;;;;;20.48;11.43;;;;;18.80;96638.00;;;;8360604;28;20232;-81
2022/10/13 12:56:42;;;;;;;23.35;10.48;;;;;18.80;96631.00;;;;8360708;28;20243;-81
2022/10/13 13:00:56;;;;;;;21.20;11.25;;;;;18.70;96627.00;;;;8360020;28;20238;-81
2022/10/13 13:04:59;;;;;;;18.70;10.70;;;;;18.60;96622.00;;;;8360258;28;20577;-81
2022/10/13 13:09:25;;;;;;;20.00;11.50;;;;;18.50;96626.00;;;;8359601;28;20228;-82
2022/10/13 13:13:30;;;;;;;25.90;10.25;;;;;18.40;96623.00;;;;8360317;28;20220;-81
2022/10/13 13:17:33;;;;;;;20.88;10.95;;;;;18.10;96620.00;;;;8359741;28;20270;-81
2022/10/13 13:21:56;;;;;;;21.60;11.75;;;;;17.90;96629.00;;;;8360230;28;20239;-81
2022/10/13 13:26:06;;;;;;;23.55;11.45;;;;;17.80;96617.00;;;;8360018;28;20246;-81
2022/10/13 13:30:12;;;;;;;24.42;12.38;;;;;17.70;96616.00;;;;8360331;28;20328;-81
2022/10/13 13:34:16;;;;;;;20.25;11.07;;;;;17.70;96610.00;;;;8358829;28;20581;-81
2022/10/13 13:38:50;;;;;;;26.15;12.48;;;;;17.90;96612.00;;;;8365239;28;20222;-82
2022/10/13 13:42:54;;;;;;;24.85;11.13;;;;;18.00;96607.00;;;;8365145;28;20220;-81
2022/10/13 13:47:28;;;;;;;24.08;11.82;;;;;17.90;96600.00;;;;8365905;28;20223;-81
2022/10/13 13:51:33;;;;;;;26.52;11.25;;;;;17.80;96595.00;;;;8364431;28;20227;-81
2022/10/13 13:55:36;;;;;;;29.13;11.95;;;;;17.70;96588.00;;;;8365583;28;20259;-81
2022/10/13 13:59:40;;;;;;;23.23;11.65;;;;;17.70;96585.00;;;;8364907;28;20634;-81
2022/10/13 14:03:44;;;;;;;23.90;11.45;;;;;17.70;96586.00;;;;8363510;28;20566;-81
2022/10/13 14:07:49;;;;;;;21.67;11.60;;;;;17.60;96582.00;;;;8364283;28;20221;-78
2022/10/13 14:12:23;;;;;;;24.42;13.07;;;;;17.50;96587.00;;;;8365260;28;20354;-82
2022/10/13 14:16:26;;;;;;;25.77;13.48;;;;;17.50;96592.00;;;;8364788;28;20220;-81
2022/10/13 14:20:45;;;;;;;22.05;13.27;;;;;17.30;96594.00;;;;8364345;28;20225;-81
2022/10/13 14:25:24;;;;;;;31.20;13.77;;;;;17.10;96593.00;;;;8362203;28;20274;-81
2022/10/13 14:29:27;;;;;;;25.08;13.27;;;;;16.90;96585.00;;;;8364514;28;20224;-81
2022/10/13 14:34:04;;;;;;;25.45;13.55;;;;;16.80;96585.00;;;;8333777;28;20220;-80
2022/10/13 14:38:41;;;;;;;27.25;12.95;;;;;16.70;96582.00;;;;8363985;28;20225;-81
2022/10/13 14:43:19;;;;;;;26.67;13.27;;;;;16.70;96586.00;;;;8361834;28;20306;-82
2022/10/13 14:47:53;;;;;;;21.13;11.85;;;;;16.80;96587.00;;;;8360777;28;20232;-84
2022/10/13 14:52:30;;;;;;;20.55;12.70;;;;;16.70;96588.00;;;;8362517;28;20716;-87
2022/10/13 14:57:07;;;;;;;23.08;11.38;;;;;16.70;96580.00;;;;8363137;28;20543;-85
2022/10/13 15:01:12;;;;;;;19.55;10.95;;;;;16.70;96580.00;;;;8363462;28;20232;-86
2022/10/13 15:05:46;;;;;;;20.52;11.48;;;;;16.80;96581.00;;;;8362837;28;20290;-83
2022/10/13 15:10:22;;;;;;;27.65;10.77;;;;;16.80;96582.00;;;;8376561;28;20254;-84
2022/10/13 15:14:25;;;;;;;19.27;11.07;;;;;16.70;96584.00;;;;8392510;28;20223;-84
2022/10/13 15:18:30;;;;;;;21.30;10.73;;;;;16.70;96574.00;;;;8392367;28;20672;-84
2022/10/13 15:23:05;;;;;;;42.60;20.63;;;;;16.70;96576.00;;;;8396298;28;20215;-84
2022/10/13 15:27:08;;;;;;;240.68;82.57;;;;;16.80;96585.00;;;;8393500;28;20228;-82
2022/10/13 15:31:45;;;;;;;192.93;73.55;;;;;16.80;96573.00;;;;8396009;28;20569;-83
2022/10/13 15:35:50;;;;;;;202.23;84.60;;;;;16.80;96569.00;;;;8392130;28;20611;-83
2022/10/13 15:40:24;;;;;;;231.45;109.03;;;;;16.80;96573.00;;;;8395428;28;20216;-87
2022/10/13 15:44:29;;;;;;;267.75;145.48;;;;;16.70;96571.00;;;;8395337;28;20223;-87
2022/10/13 15:48:54;;;;;;;221.85;122.32;;;;;16.50;96564.00;;;;8393871;28;20228;-86
2022/10/13 15:52:58;;;;;;;37.35;23.45;;;;;16.40;96584.00;;;;8394901;28;20220;-85
2022/10/13 15:57:32;;;;;;;38.90;24.92;;;;;16.20;96578.00;;;;8394715;28;20299;-85
2022/10/13 16:02:10;;;;;;;21.20;11.60;;;;;16.10;96575.00;;;;8394686;28;20285;-86
2022/10/13 16:06:13;;;;;;;24.95;11.50;;;;;16.00;96574.00;;;;8394178;28;20250;-86
2022/10/13 16:10:52;;;;;;;22.30;10.95;;;;;15.80;96573.00;;;;8394908;28;20592;-86
2022/10/13 16:14:55;;;;;;;24.75;10.65;;;;;15.70;96572.00;;;;8393228;28;20220;-84
2022/10/13 16:19:29;;;;;;;25.02;12.55;;;;;15.50;96569.00;;;;8393789;28;20215;-86
2022/10/13 16:23:50;;;;;;;19.63;11.38;;;;;15.30;96573.00;;;;8393840;28;20215;-84
2022/10/13 16:27:55;;;;;;;24.90;11.10;;;;;15.00;96571.00;;;;8393961;28;20216;-84
2022/10/13 16:31:59;;;;;;;24.58;11.18;;;;;14.80;96566.00;;;;8382785;28;20235;-84
2022/10/13 16:36:33;;;;;;;25.15;11.70;;;;;14.70;96571.00;;;;8393421;28;20215;-86
2022/10/13 16:40:37;;;;;;;21.75;10.98;;;;;14.60;96574.00;;;;8393850;28;20227;-84
2022/10/13 16:44:42;;;;;;;24.23;12.13;;;;;14.40;96573.00;;;;8393240;28;20645;-86
2022/10/13 16:48:46;;;;;;;26.55;13.70;;;;;14.20;96569.00;;;;8393813;28;20212;-85
2022/10/13 16:52:49;;;;;;;27.63;12.85;;;;;14.10;96555.00;;;;8393207;28;20219;-85
2022/10/13 16:57:26;;;;;;;24.70;14.15;;;;;13.90;96567.00;;;;8394104;28;20663;-83
2022/10/13 17:01:31;;;;;;;26.45;12.73;;;;;13.80;96563.00;;;;8393341;28;20224;-86
2022/10/13 17:06:06;;;;;;;30.70;14.10;;;;;13.80;96557.00;;;;8393647;28;20569;-84
2022/10/13 17:10:10;;;;;;;29.30;15.75;;;;;13.70;96548.00;;;;8393256;28;20227;-84
2022/10/13 17:14:44;;;;;;;28.40;14.75;;;;;13.70;96554.00;;;;8400391;28;20223;-83
2022/10/13 17:18:48;;;;;;;35.83;15.60;;;;;13.60;96558.00;;;;8399720;28;20289;-85
2022/10/13 17:23:23;;;;;;;34.00;15.20;;;;;13.50;96555.00;;;;8396410;28;20230;-83
2022/10/13 17:27:59;;;;;;;38.30;18.58;;;;;13.50;96556.00;;;;8399866;28;20219;-83
2022/10/13 17:32:37;;;;;;;31.00;16.60;;;;;13.50;96563.00;;;;8399009;28;20269;-83
2022/10/13 17:37:13;;;;;;;38.53;19.25;;;;;13.40;96565.00;;;;8399195;28;20284;-84
2022/10/13 17:41:17;;;;;;;38.40;19.88;;;;;13.30;96555.00;;;;8399652;28;20226;-87
2022/10/13 17:45:20;;;;;;;41.95;19.75;;;;;13.30;96558.00;;;;8398652;28;20272;-86
2022/10/13 17:49:23;;;;;;;52.97;20.90;;;;;13.20;96547.00;;;;8399327;28;20591;-86
2022/10/13 17:53:36;;;;;;;48.33;23.23;;;;;13.20;96548.00;;;;8398683;28;20248;-85
2022/10/13 17:57:39;;;;;;;48.92;23.05;;;;;13.20;96558.00;;;;8398622;28;20302;-86
2022/10/13 18:01:43;;;;;;;53.42;23.05;;;;;13.10;96543.00;;;;8398658;28;20216;-85
2022/10/13 18:06:17;;;;;;;62.58;25.13;;;;;13.00;96540.00;;;;8398796;28;20231;-86
2022/10/13 18:10:21;;;;;;;48.75;23.35;;;;;12.90;96535.00;;;;8398116;28;20226;-86
2022/10/13 18:14:55;;;;;;;44.80;22.70;;;;;12.80;96537.00;;;;8397893;28;20219;-86
2022/10/13 18:18:58;;;;;;;49.97;24.90;;;;;12.80;96532.00;;;;8397935;28;20269;-85
2022/10/13 18:23:36;;;;;;;46.45;22.40;;;;;12.70;96539.00;;;;8396908;28;20229;-84
2022/10/13 18:28:14;;;;;;;49.50;22.88;;;;;12.70;96544.00;;;;8395758;28;20271;-87
2022/10/13 18:32:18;;;;;;;53.20;23.55;;;;;12.70;96545.00;;;;8394912;28;20222;-87
2022/10/13 18:36:24;;;;;;;45.92;22.60;;;;;12.70;96536.00;;;;8394804;28;20280;-84
2022/10/13 18:40:59;;;;;;;45.88;22.55;;;;;12.60;96544.00;;;;8395007;28;20230;-80
2022/10/13 18:50:33;;;;;;;41.05;20.60;;;;;12.40;96535.00;;;;8395930;28;20251;-82
2022/10/13 18:55:10;;;;;;;45.50;20.30;;;;;12.20;96533.00;;;;8396003;28;20226;-86
2022/10/13 18:59:49;;;;;;;42.33;20.40;;;;;11.90;96524.00;;;;8382220;28;20289;-82
2022/10/13 19:04:22;;;;;;;53.72;22.23;;;;;11.70;96520.00;;;;8395170;28;20230;-81
2022/10/13 19:09:00;;;;;;;40.38;19.90;;;;;11.60;96532.00;;;;8388458;28;20234;-83
2022/10/13 19:13:38;;;;;;;53.83;24.38;;;;;11.50;96521.00;;;;8361399;28;20234;-80
2022/10/13 19:18:18;;;;;;;61.25;24.83;;;;;11.50;96517.00;;;;8379766;28;20663;-80
2022/10/13 19:22:27;;;;;;;54.65;23.48;;;;;11.50;96515.00;;;;8383532;28;20218;-81
2022/10/13 19:27:04;;;;;;;56.38;23.48;;;;;11.50;96525.00;;;;8395642;28;20221;-80
2022/10/13 19:31:41;;;;;;;52.05;22.50;;;;;11.50;96528.00;;;;8392891;28;20280;-78
2022/10/13 19:36:24;;;;;;;53.17;22.15;;;;;11.60;96526.00;;;;8390484;28;20692;-79
2022/10/13 19:41:01;;;;;;;53.22;22.60;;;;;11.60;96515.00;;;;8391840;28;20666;-80
2022/10/13 19:50:48;;;;;;;49.33;21.05;;;;;11.70;96503.00;;;;8380917;28;20511;-80
2022/10/13 19:55:18;;;;;;;43.92;20.85;;;;;11.70;96497.00;;;;8393939;28;20231;-79
2022/10/13 19:59:52;;;;;;;52.78;23.77;;;;;11.70;96501.00;;;;8383397;28;20217;-79
2022/10/13 20:04:29;;;;;;;50.30;21.55;;;;;11.70;96509.00;;;;8390480;28;20218;-79
2022/10/13 20:08:32;;;;;;;49.17;20.05;;;;;11.80;96505.00;;;;8389692;28;20685;-79
2022/10/13 20:12:38;;;;;;;51.22;20.52;;;;;11.80;96499.00;;;;8381390;28;20749;-79
2022/10/13 20:17:11;;;;;;;54.85;21.88;;;;;11.70;96496.00;;;;8379037;28;20231;-79
2022/10/13 20:21:16;;;;;;;52.65;21.90;;;;;11.70;96490.00;;;;8393875;28;20217;-81
2022/10/13 20:25:50;;;;;;;50.13;22.42;;;;;11.60;96480.00;;;;8393941;28;20662;-82
2022/10/13 20:30:28;;;;;;;53.95;22.10;;;;;11.60;96489.00;;;;8394052;28;20259;-84
2022/10/13 20:34:31;;;;;;;50.88;22.38;;;;;11.60;96478.00;;;;8392833;28;20266;-85
2022/10/13 20:38:35;;;;;;;56.35;22.70;;;;;11.60;96490.00;;;;8393258;28;20220;-85
2022/10/13 20:43:12;;;;;;;49.55;21.67;;;;;11.60;96493.00;;;;8393329;28;20231;-84
2022/10/13 20:47:17;;;;;;;52.80;22.30;;;;;11.70;96492.00;;;;8393927;28;20284;-81
2022/10/13 20:51:22;;;;;;;54.83;23.88;;;;;11.80;96480.00;;;;8392463;28;20221;-87
2022/10/13 20:55:57;;;;;;;53.85;24.30;;;;;11.80;96484.00;;;;8394232;28;20215;-85
2022/10/13 21:00:00;;;;;;;66.22;24.17;;;;;11.80;96487.00;;;;8393472;28;20254;-85